sensor_id;sensor_type;location;lat;lon;timestamp;P1;durP1;ratioP1;P2;durP2;ratioP2
20669;SDS011;10494;50.868;4.180;2024-03-23T00:54:42;12.40;;;4.68;;
20669;SDS011;10494;50.868;4.180;2024-03-23T00:57:07;15.77;;;4.22;;
20669;SDS011;10494;50.868;4.180;2024-03-23T00:59:33;9.98;;;3.95;;
20669;SDS011;10494;50.868;4.180;2024-03-23T01:01:59;9.07;;;3.47;;
20669;SDS011;10494;50.868;4.180;2024-03-23T01:04:24;14.25;;;3.38;;
20669;SDS011;10494;50.868;4.180;2024-03-23T01:06:50;9.55;;;3.58;;
20669;SDS011;10494;50.868;4.180;2024-03-23T01:09:15;8.98;;;3.63;;
20669;SDS011;10494;50.868;4.180;2024-03-23T01:11:41;13.27;;;3.80;;
20669;SDS011;10494;50.868;4.180;2024-03-23T01:14:07;10.70;;;3.22;;
20669;SDS011;10494;50.868;4.180;2024-03-23T01:16:32;13.07;;;3.60;;
20669;SDS011;10494;50.868;4.180;2024-03-23T01:18:58;9.63;;;3.43;;
20669;SDS011;10494;50.868;4.180;2024-03-23T01:21:24;10.70;;;3.40;;
20669;SDS011;10494;50.868;4.180;2024-03-23T01:23:49;16.60;;;4.45;;
20669;SDS011;10494;50.868;4.180;2024-03-23T01:26:15;8.70;;;3.80;;
20669;SDS011;10494;50.868;4.180;2024-03-23T01:28:41;12.83;;;4.03;;
20669;SDS011;10494;50.868;4.180;2024-03-23T01:31:07;13.27;;;4.20;;
20669;SDS011;10494;50.868;4.180;2024-03-23T01:33:32;17.80;;;5.05;;
20669;SDS011;10494;50.868;4.180;2024-03-23T01:35:58;13.10;;;4.90;;
20669;SDS011;10494;50.868;4.180;2024-03-23T01:38:23;15.50;;;5.63;;
20669;SDS011;10494;50.868;4.180;2024-03-23T01:40:49;19.58;;;6.15;;
20669;SDS011;10494;50.868;4.180;2024-03-23T01:43:14;18.15;;;5.72;;
20669;SDS011;10494;50.868;4.180;2024-03-23T01:45:40;22.70;;;6.22;;
20669;SDS011;10494;50.868;4.180;2024-03-23T01:48:06;11.88;;;5.68;;
20669;SDS011;10494;50.868;4.180;2024-03-23T01:50:32;29.98;;;7.18;;
20669;SDS011;10494;50.868;4.180;2024-03-23T01:53:00;19.08;;;6.97;;
20669;SDS011;10494;50.868;4.180;2024-03-23T01:55:28;29.98;;;9.23;;
20669;SDS011;10494;50.868;4.180;2024-03-23T01:57:56;25.70;;;8.60;;
20669;SDS011;10494;50.868;4.180;2024-03-23T02:00:22;19.05;;;7.70;;
20669;SDS011;10494;50.868;4.180;2024-03-23T02:02:48;24.73;;;9.27;;
20669;SDS011;10494;50.868;4.180;2024-03-23T02:05:14;25.33;;;9.73;;
20669;SDS011;10494;50.868;4.180;2024-03-23T02:07:40;33.28;;;9.65;;
20669;SDS011;10494;50.868;4.180;2024-03-23T02:10:06;22.15;;;9.07;;
20669;SDS011;10494;50.868;4.180;2024-03-23T02:12:33;22.05;;;9.68;;
20669;SDS011;10494;50.868;4.180;2024-03-23T02:14:59;36.83;;;9.85;;
20669;SDS011;10494;50.868;4.180;2024-03-23T02:17:25;28.63;;;11.45;;
20669;SDS011;10494;50.868;4.180;2024-03-23T02:19:51;30.95;;;11.13;;
20669;SDS011;10494;50.868;4.180;2024-03-23T02:22:17;30.08;;;11.73;;
20669;SDS011;10494;50.868;4.180;2024-03-23T02:24:43;33.28;;;11.50;;
20669;SDS011;10494;50.868;4.180;2024-03-23T02:27:08;31.70;;;11.63;;
20669;SDS011;10494;50.868;4.180;2024-03-23T02:29:34;34.63;;;11.50;;
20669;SDS011;10494;50.868;4.180;2024-03-23T02:32:00;31.70;;;11.20;;
20669;SDS011;10494;50.868;4.180;2024-03-23T02:34:26;35.85;;;11.10;;
20669;SDS011;10494;50.868;4.180;2024-03-23T02:36:52;27.42;;;10.48;;
20669;SDS011;10494;50.868;4.180;2024-03-23T02:39:17;27.85;;;11.13;;
20669;SDS011;10494;50.868;4.180;2024-03-23T02:41:43;26.65;;;10.32;;
20669;SDS011;10494;50.868;4.180;2024-03-23T02:44:08;29.10;;;11.30;;
20669;SDS011;10494;50.868;4.180;2024-03-23T02:46:37;32.17;;;10.80;;
20669;SDS011;10494;50.868;4.180;2024-03-23T02:49:05;33.40;;;11.50;;
20669;SDS011;10494;50.868;4.180;2024-03-23T02:51:31;39.05;;;10.65;;
20669;SDS011;10494;50.868;4.180;2024-03-23T02:53:57;31.50;;;10.43;;
20669;SDS011;10494;50.868;4.180;2024-03-23T02:56:22;38.83;;;10.93;;
20669;SDS011;10494;50.868;4.180;2024-03-23T02:58:48;27.92;;;10.68;;
20669;SDS011;10494;50.868;4.180;2024-03-23T03:01:14;35.97;;;11.93;;
20669;SDS011;10494;50.868;4.180;2024-03-23T03:03:39;35.90;;;11.82;;
20669;SDS011;10494;50.868;4.180;2024-03-23T03:06:05;34.60;;;11.90;;
20669;SDS011;10494;50.868;4.180;2024-03-23T03:08:31;25.70;;;11.20;;
20669;SDS011;10494;50.868;4.180;2024-03-23T03:10:56;31.60;;;9.98;;
20669;SDS011;10494;50.868;4.180;2024-03-23T03:13:22;34.42;;;10.32;;
20669;SDS011;10494;50.868;4.180;2024-03-23T03:15:47;30.10;;;10.57;;
20669;SDS011;10494;50.868;4.180;2024-03-23T03:18:13;25.38;;;9.30;;
20669;SDS011;10494;50.868;4.180;2024-03-23T03:20:39;33.50;;;11.00;;
20669;SDS011;10494;50.868;4.180;2024-03-23T03:23:05;22.30;;;9.30;;
20669;SDS011;10494;50.868;4.180;2024-03-23T03:25:31;36.30;;;10.63;;
20669;SDS011;10494;50.868;4.180;2024-03-23T03:27:57;32.67;;;10.27;;
20669;SDS011;10494;50.868;4.180;2024-03-23T03:30:22;29.42;;;10.60;;
20669;SDS011;10494;50.868;4.180;2024-03-23T03:32:49;23.42;;;9.57;;
20669;SDS011;10494;50.868;4.180;2024-03-23T03:35:15;18.25;;;9.10;;
20669;SDS011;10494;50.868;4.180;2024-03-23T03:37:40;34.78;;;10.45;;
20669;SDS011;10494;50.868;4.180;2024-03-23T03:40:06;27.00;;;9.35;;
20669;SDS011;10494;50.868;4.180;2024-03-23T03:42:34;25.70;;;9.50;;
20669;SDS011;10494;50.868;4.180;2024-03-23T03:44:59;23.33;;;9.35;;
20669;SDS011;10494;50.868;4.180;2024-03-23T03:47:25;28.17;;;8.73;;
20669;SDS011;10494;50.868;4.180;2024-03-23T03:49:51;22.05;;;8.95;;
20669;SDS011;10494;50.868;4.180;2024-03-23T03:52:16;25.33;;;9.45;;
20669;SDS011;10494;50.868;4.180;2024-03-23T03:54:42;30.65;;;9.30;;
20669;SDS011;10494;50.868;4.180;2024-03-23T03:57:08;20.47;;;8.33;;
20669;SDS011;10494;50.868;4.180;2024-03-23T03:59:33;28.52;;;8.18;;
20669;SDS011;10494;50.868;4.180;2024-03-23T04:01:59;19.45;;;9.05;;
20669;SDS011;10494;50.868;4.180;2024-03-23T04:04:25;18.33;;;8.38;;
20669;SDS011;10494;50.868;4.180;2024-03-23T04:06:57;24.98;;;9.07;;
20669;SDS011;10494;50.868;4.180;2024-03-23T04:09:27;33.00;;;10.10;;
20669;SDS011;10494;50.868;4.180;2024-03-23T04:11:53;24.77;;;9.43;;
20669;SDS011;10494;50.868;4.180;2024-03-23T04:14:19;21.65;;;8.07;;
20669;SDS011;10494;50.868;4.180;2024-03-23T04:16:44;34.00;;;8.55;;
20669;SDS011;10494;50.868;4.180;2024-03-23T04:19:10;23.33;;;8.87;;
20669;SDS011;10494;50.868;4.180;2024-03-23T04:21:37;19.90;;;7.90;;
20669;SDS011;10494;50.868;4.180;2024-03-23T04:24:03;21.52;;;7.40;;
20669;SDS011;10494;50.868;4.180;2024-03-23T04:26:29;20.30;;;8.15;;
20669;SDS011;10494;50.868;4.180;2024-03-23T04:28:54;23.23;;;8.40;;
20669;SDS011;10494;50.868;4.180;2024-03-23T04:31:20;17.48;;;7.63;;
20669;SDS011;10494;50.868;4.180;2024-03-23T04:33:46;19.70;;;7.10;;
20669;SDS011;10494;50.868;4.180;2024-03-23T04:36:12;18.75;;;7.13;;
20669;SDS011;10494;50.868;4.180;2024-03-23T04:38:38;19.55;;;6.95;;
20669;SDS011;10494;50.868;4.180;2024-03-23T04:41:03;24.00;;;7.13;;
20669;SDS011;10494;50.868;4.180;2024-03-23T04:43:29;20.00;;;7.47;;
20669;SDS011;10494;50.868;4.180;2024-03-23T04:45:55;21.58;;;7.50;;
20669;SDS011;10494;50.868;4.180;2024-03-23T04:48:21;20.63;;;6.80;;
20669;SDS011;10494;50.868;4.180;2024-03-23T04:50:47;22.27;;;6.40;;
20669;SDS011;10494;50.868;4.180;2024-03-23T04:53:14;20.77;;;8.00;;
20669;SDS011;10494;50.868;4.180;2024-03-23T04:55:40;21.20;;;6.87;;
20669;SDS011;10494;50.868;4.180;2024-03-23T04:58:06;17.48;;;7.25;;
20669;SDS011;10494;50.868;4.180;2024-03-23T05:00:32;20.57;;;7.33;;
20669;SDS011;10494;50.868;4.180;2024-03-23T05:02:58;19.42;;;7.20;;
20669;SDS011;10494;50.868;4.180;2024-03-23T05:05:23;19.92;;;8.25;;
20669;SDS011;10494;50.868;4.180;2024-03-23T05:07:49;17.10;;;8.13;;
20669;SDS011;10494;50.868;4.180;2024-03-23T05:10:15;18.05;;;8.23;;
20669;SDS011;10494;50.868;4.180;2024-03-23T05:12:41;19.83;;;8.25;;
20669;SDS011;10494;50.868;4.180;2024-03-23T05:15:07;21.33;;;8.00;;
20669;SDS011;10494;50.868;4.180;2024-03-23T05:17:33;14.80;;;7.57;;
20669;SDS011;10494;50.868;4.180;2024-03-23T05:19:59;20.05;;;7.97;;
20669;SDS011;10494;50.868;4.180;2024-03-23T05:22:25;20.67;;;8.13;;
20669;SDS011;10494;50.868;4.180;2024-03-23T05:24:52;32.45;;;8.40;;
20669;SDS011;10494;50.868;4.180;2024-03-23T05:27:18;25.90;;;7.07;;
20669;SDS011;10494;50.868;4.180;2024-03-23T05:29:43;18.00;;;6.77;;
20669;SDS011;10494;50.868;4.180;2024-03-23T05:32:09;18.80;;;6.60;;
20669;SDS011;10494;50.868;4.180;2024-03-23T05:34:34;17.73;;;6.03;;
20669;SDS011;10494;50.868;4.180;2024-03-23T05:37:00;21.67;;;6.23;;
20669;SDS011;10494;50.868;4.180;2024-03-23T05:39:26;22.67;;;5.80;;
20669;SDS011;10494;50.868;4.180;2024-03-23T05:41:51;20.17;;;5.17;;
20669;SDS011;10494;50.868;4.180;2024-03-23T05:44:17;19.65;;;5.03;;
20669;SDS011;10494;50.868;4.180;2024-03-23T05:46:43;20.38;;;5.07;;
20669;SDS011;10494;50.868;4.180;2024-03-23T05:49:13;15.43;;;4.30;;
20669;SDS011;10494;50.868;4.180;2024-03-23T05:51:39;17.80;;;4.70;;
20669;SDS011;10494;50.868;4.180;2024-03-23T05:54:04;16.70;;;3.73;;
20669;SDS011;10494;50.868;4.180;2024-03-23T05:56:30;11.82;;;3.92;;
20669;SDS011;10494;50.868;4.180;2024-03-23T05:58:56;14.43;;;4.03;;
20669;SDS011;10494;50.868;4.180;2024-03-23T06:01:22;20.73;;;4.30;;
20669;SDS011;10494;50.868;4.180;2024-03-23T06:03:47;15.27;;;3.60;;
20669;SDS011;10494;50.868;4.180;2024-03-23T06:06:13;16.47;;;3.00;;
20669;SDS011;10494;50.868;4.180;2024-03-23T06:08:39;19.42;;;3.65;;
20669;SDS011;10494;50.868;4.180;2024-03-23T06:11:05;13.82;;;2.97;;
20669;SDS011;10494;50.868;4.180;2024-03-23T06:13:33;14.80;;;3.10;;
20669;SDS011;10494;50.868;4.180;2024-03-23T06:16:00;18.83;;;3.57;;
20669;SDS011;10494;50.868;4.180;2024-03-23T06:18:26;15.83;;;2.83;;
20669;SDS011;10494;50.868;4.180;2024-03-23T06:20:52;15.93;;;3.70;;
20669;SDS011;10494;50.868;4.180;2024-03-23T06:23:18;22.03;;;2.97;;
20669;SDS011;10494;50.868;4.180;2024-03-23T06:25:45;14.37;;;2.93;;
20669;SDS011;10494;50.868;4.180;2024-03-23T06:28:11;14.60;;;2.78;;
20669;SDS011;10494;50.868;4.180;2024-03-23T06:30:37;14.63;;;2.93;;
20669;SDS011;10494;50.868;4.180;2024-03-23T06:33:03;13.55;;;2.92;;
20669;SDS011;10494;50.868;4.180;2024-03-23T06:35:28;17.00;;;2.92;;
20669;SDS011;10494;50.868;4.180;2024-03-23T06:37:54;9.53;;;2.67;;
20669;SDS011;10494;50.868;4.180;2024-03-23T06:40:19;15.57;;;2.85;;
20669;SDS011;10494;50.868;4.180;2024-03-23T06:42:45;8.73;;;2.83;;
20669;SDS011;10494;50.868;4.180;2024-03-23T06:45:11;15.97;;;3.47;;
20669;SDS011;10494;50.868;4.180;2024-03-23T06:47:36;18.40;;;3.42;;
20669;SDS011;10494;50.868;4.180;2024-03-23T06:50:03;11.55;;;3.13;;
20669;SDS011;10494;50.868;4.180;2024-03-23T06:52:29;16.83;;;3.00;;
20669;SDS011;10494;50.868;4.180;2024-03-23T06:54:55;17.53;;;3.07;;
20669;SDS011;10494;50.868;4.180;2024-03-23T06:57:21;12.53;;;2.23;;
20669;SDS011;10494;50.868;4.180;2024-03-23T06:59:47;6.03;;;1.73;;
20669;SDS011;10494;50.868;4.180;2024-03-23T07:02:12;9.20;;;2.23;;
20669;SDS011;10494;50.868;4.180;2024-03-23T07:04:38;8.27;;;2.73;;
20669;SDS011;10494;50.868;4.180;2024-03-23T07:07:06;10.90;;;2.17;;
20669;SDS011;10494;50.868;4.180;2024-03-23T07:09:32;13.20;;;3.23;;
20669;SDS011;10494;50.868;4.180;2024-03-23T07:11:58;15.23;;;2.73;;
20669;SDS011;10494;50.868;4.180;2024-03-23T07:14:24;9.97;;;2.50;;
20669;SDS011;10494;50.868;4.180;2024-03-23T07:16:50;11.07;;;2.90;;
20669;SDS011;10494;50.868;4.180;2024-03-23T07:19:16;13.50;;;3.10;;
20669;SDS011;10494;50.868;4.180;2024-03-23T07:21:43;21.23;;;3.13;;
20669;SDS011;10494;50.868;4.180;2024-03-23T07:24:13;14.27;;;3.20;;
20669;SDS011;10494;50.868;4.180;2024-03-23T07:26:38;9.33;;;3.17;;
20669;SDS011;10494;50.868;4.180;2024-03-23T07:29:04;17.70;;;3.60;;
20669;SDS011;10494;50.868;4.180;2024-03-23T07:31:30;16.45;;;3.00;;
20669;SDS011;10494;50.868;4.180;2024-03-23T07:33:57;16.20;;;3.50;;
20669;SDS011;10494;50.868;4.180;2024-03-23T07:36:22;14.23;;;2.83;;
20669;SDS011;10494;50.868;4.180;2024-03-23T07:38:48;16.25;;;3.22;;
20669;SDS011;10494;50.868;4.180;2024-03-23T07:41:15;11.65;;;2.70;;
20669;SDS011;10494;50.868;4.180;2024-03-23T07:43:44;15.02;;;3.10;;
20669;SDS011;10494;50.868;4.180;2024-03-23T07:46:11;10.32;;;2.58;;
20669;SDS011;10494;50.868;4.180;2024-03-23T07:48:37;12.40;;;2.50;;
20669;SDS011;10494;50.868;4.180;2024-03-23T07:53:32;8.93;;;2.22;;
20669;SDS011;10494;50.868;4.180;2024-03-23T07:55:59;7.75;;;2.30;;
20669;SDS011;10494;50.868;4.180;2024-03-23T07:58:31;7.28;;;2.05;;
20669;SDS011;10494;50.868;4.180;2024-03-23T08:01:03;9.93;;;2.40;;
20669;SDS011;10494;50.868;4.180;2024-03-23T08:03:30;10.00;;;2.15;;
20669;SDS011;10494;50.868;4.180;2024-03-23T08:05:56;10.60;;;2.38;;
20669;SDS011;10494;50.868;4.180;2024-03-23T08:08:22;8.88;;;2.08;;
20669;SDS011;10494;50.868;4.180;2024-03-23T08:10:51;14.50;;;2.53;;
20669;SDS011;10494;50.868;4.180;2024-03-23T08:13:17;15.02;;;2.65;;
20669;SDS011;10494;50.868;4.180;2024-03-23T08:15:44;10.93;;;2.00;;
20669;SDS011;10494;50.868;4.180;2024-03-23T08:18:12;8.57;;;2.40;;
20669;SDS011;10494;50.868;4.180;2024-03-23T08:20:38;12.38;;;2.10;;
20669;SDS011;10494;50.868;4.180;2024-03-23T08:23:05;14.65;;;2.58;;
20669;SDS011;10494;50.868;4.180;2024-03-23T08:25:31;9.63;;;2.20;;
20669;SDS011;10494;50.868;4.180;2024-03-23T08:27:57;13.57;;;3.35;;
20669;SDS011;10494;50.868;4.180;2024-03-23T08:30:23;9.55;;;2.47;;
20669;SDS011;10494;50.868;4.180;2024-03-23T08:32:48;10.95;;;2.45;;
20669;SDS011;10494;50.868;4.180;2024-03-23T08:35:14;7.03;;;1.85;;
20669;SDS011;10494;50.868;4.180;2024-03-23T08:37:40;6.68;;;1.95;;
20669;SDS011;10494;50.868;4.180;2024-03-23T08:40:05;11.30;;;1.88;;
20669;SDS011;10494;50.868;4.180;2024-03-23T08:42:33;11.10;;;2.03;;
20669;SDS011;10494;50.868;4.180;2024-03-23T08:44:59;6.63;;;2.45;;
20669;SDS011;10494;50.868;4.180;2024-03-23T08:47:25;8.32;;;2.10;;
20669;SDS011;10494;50.868;4.180;2024-03-23T08:49:50;10.27;;;2.47;;
20669;SDS011;10494;50.868;4.180;2024-03-23T08:52:16;5.82;;;1.83;;
20669;SDS011;10494;50.868;4.180;2024-03-23T08:54:41;8.82;;;2.00;;
20669;SDS011;10494;50.868;4.180;2024-03-23T08:57:07;11.00;;;2.30;;
20669;SDS011;10494;50.868;4.180;2024-03-23T08:59:33;7.60;;;2.13;;
20669;SDS011;10494;50.868;4.180;2024-03-23T09:01:59;7.88;;;2.05;;
20669;SDS011;10494;50.868;4.180;2024-03-23T09:04:25;9.40;;;2.13;;
20669;SDS011;10494;50.868;4.180;2024-03-23T09:06:51;8.80;;;2.10;;
20669;SDS011;10494;50.868;4.180;2024-03-23T09:09:16;12.43;;;3.22;;
20669;SDS011;10494;50.868;4.180;2024-03-23T09:11:42;10.02;;;2.20;;
20669;SDS011;10494;50.868;4.180;2024-03-23T09:14:08;7.47;;;2.38;;
20669;SDS011;10494;50.868;4.180;2024-03-23T09:16:34;7.88;;;2.10;;
20669;SDS011;10494;50.868;4.180;2024-03-23T09:19:00;13.32;;;2.80;;
20669;SDS011;10494;50.868;4.180;2024-03-23T09:21:25;6.55;;;2.30;;
20669;SDS011;10494;50.868;4.180;2024-03-23T09:23:51;9.85;;;2.65;;
20669;SDS011;10494;50.868;4.180;2024-03-23T09:26:17;8.20;;;2.08;;
20669;SDS011;10494;50.868;4.180;2024-03-23T09:28:42;13.80;;;2.50;;
20669;SDS011;10494;50.868;4.180;2024-03-23T09:31:08;10.82;;;2.20;;
20669;SDS011;10494;50.868;4.180;2024-03-23T09:33:39;11.93;;;3.20;;
20669;SDS011;10494;50.868;4.180;2024-03-23T09:36:05;11.73;;;2.65;;
20669;SDS011;10494;50.868;4.180;2024-03-23T09:38:31;9.43;;;2.22;;
20669;SDS011;10494;50.868;4.180;2024-03-23T09:40:57;6.47;;;2.13;;
20669;SDS011;10494;50.868;4.180;2024-03-23T09:43:23;11.55;;;3.22;;
20669;SDS011;10494;50.868;4.180;2024-03-23T09:45:49;9.27;;;2.60;;
20669;SDS011;10494;50.868;4.180;2024-03-23T09:48:15;7.20;;;2.70;;
20669;SDS011;10494;50.868;4.180;2024-03-23T09:50:41;6.53;;;2.38;;
20669;SDS011;10494;50.868;4.180;2024-03-23T09:53:08;6.05;;;2.22;;
20669;SDS011;10494;50.868;4.180;2024-03-23T09:55:36;7.13;;;2.05;;
20669;SDS011;10494;50.868;4.180;2024-03-23T09:58:02;8.10;;;2.40;;
20669;SDS011;10494;50.868;4.180;2024-03-23T10:00:30;10.25;;;2.20;;
20669;SDS011;10494;50.868;4.180;2024-03-23T10:02:59;11.75;;;2.40;;
20669;SDS011;10494;50.868;4.180;2024-03-23T10:05:27;8.50;;;2.30;;
20669;SDS011;10494;50.868;4.180;2024-03-23T10:10:42;14.43;;;2.33;;
20669;SDS011;10494;50.868;4.180;2024-03-23T10:13:09;8.07;;;2.15;;
20669;SDS011;10494;50.868;4.180;2024-03-23T10:15:37;12.98;;;2.50;;
20669;SDS011;10494;50.868;4.180;2024-03-23T10:18:18;8.25;;;1.77;;
20669;SDS011;10494;50.868;4.180;2024-03-23T10:20:50;10.57;;;2.13;;
20669;SDS011;10494;50.868;4.180;2024-03-23T10:23:31;5.95;;;1.75;;
20669;SDS011;10494;50.868;4.180;2024-03-23T10:31:19;7.53;;;1.90;;
20669;SDS011;10494;50.868;4.180;2024-03-23T10:33:46;51.92;;;4.72;;
20669;SDS011;10494;50.868;4.180;2024-03-23T10:36:12;6.47;;;1.77;;
20669;SDS011;10494;50.868;4.180;2024-03-23T10:38:40;7.50;;;1.73;;
20669;SDS011;10494;50.868;4.180;2024-03-23T10:41:07;10.80;;;2.03;;
20669;SDS011;10494;50.868;4.180;2024-03-23T10:43:34;7.95;;;2.25;;
20669;SDS011;10494;50.868;4.180;2024-03-23T10:46:01;7.30;;;1.38;;
20669;SDS011;10494;50.868;4.180;2024-03-23T10:48:26;12.75;;;2.13;;
20669;SDS011;10494;50.868;4.180;2024-03-23T10:50:52;3.10;;;1.10;;
20669;SDS011;10494;50.868;4.180;2024-03-23T10:53:19;5.63;;;1.50;;
20669;SDS011;10494;50.868;4.180;2024-03-23T10:55:51;6.05;;;1.70;;
20669;SDS011;10494;50.868;4.180;2024-03-23T10:58:37;6.72;;;1.77;;
20669;SDS011;10494;50.868;4.180;2024-03-23T11:01:10;28.73;;;4.45;;
20669;SDS011;10494;50.868;4.180;2024-03-23T11:03:40;4.85;;;1.33;;
20669;SDS011;10494;50.868;4.180;2024-03-23T11:06:10;8.52;;;1.65;;
20669;SDS011;10494;50.868;4.180;2024-03-23T11:12:17;7.97;;;1.67;;
20669;SDS011;10494;50.868;4.180;2024-03-23T11:14:43;9.48;;;1.80;;
20669;SDS011;10494;50.868;4.180;2024-03-23T11:17:09;7.25;;;1.48;;
20669;SDS011;10494;50.868;4.180;2024-03-23T11:19:38;3.35;;;0.80;;
20669;SDS011;10494;50.868;4.180;2024-03-23T11:22:04;45.75;;;8.23;;
20669;SDS011;10494;50.868;4.180;2024-03-23T11:24:31;65.13;;;7.53;;
20669;SDS011;10494;50.868;4.180;2024-03-23T11:26:57;5.68;;;1.30;;
20669;SDS011;10494;50.868;4.180;2024-03-23T11:29:28;4.63;;;1.58;;
20669;SDS011;10494;50.868;4.180;2024-03-23T11:31:54;6.35;;;1.67;;
20669;SDS011;10494;50.868;4.180;2024-03-23T11:34:20;6.25;;;1.27;;
20669;SDS011;10494;50.868;4.180;2024-03-23T11:36:46;6.35;;;1.50;;
20669;SDS011;10494;50.868;4.180;2024-03-23T11:39:13;5.75;;;1.27;;
20669;SDS011;10494;50.868;4.180;2024-03-23T11:41:50;6.47;;;1.42;;
20669;SDS011;10494;50.868;4.180;2024-03-23T11:44:20;7.13;;;1.27;;
20669;SDS011;10494;50.868;4.180;2024-03-23T11:46:49;6.93;;;1.27;;
20669;SDS011;10494;50.868;4.180;2024-03-23T11:51:50;8.10;;;1.55;;
20669;SDS011;10494;50.868;4.180;2024-03-23T11:54:19;5.53;;;1.38;;
20669;SDS011;10494;50.868;4.180;2024-03-23T11:56:59;6.93;;;1.55;;
20669;SDS011;10494;50.868;4.180;2024-03-23T11:59:35;9.27;;;1.40;;
20669;SDS011;10494;50.868;4.180;2024-03-23T12:02:08;140.57;;;8.38;;
20669;SDS011;10494;50.868;4.180;2024-03-23T12:04:36;4.13;;;1.00;;
20669;SDS011;10494;50.868;4.180;2024-03-23T12:07:09;1.40;;;0.60;;
20669;SDS011;10494;50.868;4.180;2024-03-23T12:09:35;7.97;;;0.98;;
20669;SDS011;10494;50.868;4.180;2024-03-23T12:14:33;11.90;;;1.52;;
20669;SDS011;10494;50.868;4.180;2024-03-23T12:17:14;8.52;;;1.40;;
20669;SDS011;10494;50.868;4.180;2024-03-23T12:19:40;4.57;;;1.30;;
20669;SDS011;10494;50.868;4.180;2024-03-23T12:22:10;6.05;;;1.27;;
20669;SDS011;10494;50.868;4.180;2024-03-23T12:24:35;4.18;;;1.10;;
20669;SDS011;10494;50.868;4.180;2024-03-23T12:27:02;3.63;;;1.15;;
20669;SDS011;10494;50.868;4.180;2024-03-23T12:29:29;4.32;;;1.40;;
20669;SDS011;10494;50.868;4.180;2024-03-23T12:31:59;8.73;;;1.60;;
20669;SDS011;10494;50.868;4.180;2024-03-23T12:34:26;5.00;;;1.30;;
20669;SDS011;10494;50.868;4.180;2024-03-23T12:36:52;4.40;;;1.05;;
20669;SDS011;10494;50.868;4.180;2024-03-23T12:39:17;7.43;;;1.40;;
20669;SDS011;10494;50.868;4.180;2024-03-23T12:41:43;7.55;;;1.42;;
20669;SDS011;10494;50.868;4.180;2024-03-23T12:44:09;6.10;;;1.08;;
20669;SDS011;10494;50.868;4.180;2024-03-23T12:46:37;8.65;;;1.77;;
20669;SDS011;10494;50.868;4.180;2024-03-23T12:49:03;6.38;;;1.48;;
20669;SDS011;10494;50.868;4.180;2024-03-23T12:51:30;10.40;;;1.85;;
20669;SDS011;10494;50.868;4.180;2024-03-23T12:53:55;6.72;;;1.30;;
20669;SDS011;10494;50.868;4.180;2024-03-23T12:56:21;10.02;;;2.08;;
20669;SDS011;10494;50.868;4.180;2024-03-23T12:58:47;13.27;;;1.73;;
20669;SDS011;10494;50.868;4.180;2024-03-23T13:01:20;5.22;;;1.05;;
20669;SDS011;10494;50.868;4.180;2024-03-23T13:03:46;5.88;;;0.98;;
20669;SDS011;10494;50.868;4.180;2024-03-23T13:06:12;10.60;;;1.60;;
20669;SDS011;10494;50.868;4.180;2024-03-23T13:08:38;3.65;;;1.10;;
20669;SDS011;10494;50.868;4.180;2024-03-23T13:11:05;4.20;;;1.08;;
20669;SDS011;10494;50.868;4.180;2024-03-23T13:13:33;7.22;;;1.20;;
20669;SDS011;10494;50.868;4.180;2024-03-23T13:16:03;6.53;;;1.10;;
20669;SDS011;10494;50.868;4.180;2024-03-23T13:18:29;4.57;;;1.23;;
20669;SDS011;10494;50.868;4.180;2024-03-23T13:20:55;2.53;;;0.85;;
20669;SDS011;10494;50.868;4.180;2024-03-23T13:23:21;6.18;;;1.25;;
20669;SDS011;10494;50.868;4.180;2024-03-23T13:25:50;6.05;;;1.35;;
20669;SDS011;10494;50.868;4.180;2024-03-23T13:28:21;3.97;;;1.35;;
20669;SDS011;10494;50.868;4.180;2024-03-23T13:33:19;6.78;;;1.17;;
20669;SDS011;10494;50.868;4.180;2024-03-23T13:36:03;8.35;;;1.38;;
20669;SDS011;10494;50.868;4.180;2024-03-23T13:38:30;5.47;;;1.50;;
20669;SDS011;10494;50.868;4.180;2024-03-23T13:40:56;5.93;;;1.30;;
20669;SDS011;10494;50.868;4.180;2024-03-23T13:43:23;8.48;;;1.55;;
20669;SDS011;10494;50.868;4.180;2024-03-23T13:45:51;4.72;;;1.50;;
20669;SDS011;10494;50.868;4.180;2024-03-23T13:48:22;10.68;;;1.23;;
20669;SDS011;10494;50.868;4.180;2024-03-23T13:51:05;3.65;;;0.93;;
20669;SDS011;10494;50.868;4.180;2024-03-23T13:53:30;12.60;;;1.50;;
20669;SDS011;10494;50.868;4.180;2024-03-23T13:55:59;5.75;;;1.38;;
20669;SDS011;10494;50.868;4.180;2024-03-23T13:58:25;9.25;;;1.45;;
20669;SDS011;10494;50.868;4.180;2024-03-23T14:00:52;7.88;;;1.20;;
20669;SDS011;10494;50.868;4.180;2024-03-23T14:03:18;4.53;;;1.30;;
20669;SDS011;10494;50.868;4.180;2024-03-23T14:05:44;6.80;;;1.20;;
20669;SDS011;10494;50.868;4.180;2024-03-23T14:08:10;5.45;;;1.13;;
20669;SDS011;10494;50.868;4.180;2024-03-23T14:10:36;8.50;;;1.48;;
20669;SDS011;10494;50.868;4.180;2024-03-23T14:13:05;4.15;;;1.05;;
20669;SDS011;10494;50.868;4.180;2024-03-23T14:15:30;6.80;;;1.35;;
20669;SDS011;10494;50.868;4.180;2024-03-23T14:17:56;7.32;;;1.58;;
20669;SDS011;10494;50.868;4.180;2024-03-23T14:20:22;2.85;;;1.17;;
20669;SDS011;10494;50.868;4.180;2024-03-23T14:22:48;7.22;;;1.45;;
20669;SDS011;10494;50.868;4.180;2024-03-23T14:25:14;5.43;;;1.27;;
20669;SDS011;10494;50.868;4.180;2024-03-23T14:27:40;9.27;;;1.52;;
20669;SDS011;10494;50.868;4.180;2024-03-23T14:30:06;5.10;;;1.25;;
20669;SDS011;10494;50.868;4.180;2024-03-23T14:32:33;5.60;;;1.38;;
20669;SDS011;10494;50.868;4.180;2024-03-23T14:35:05;6.70;;;1.35;;
20669;SDS011;10494;50.868;4.180;2024-03-23T14:37:38;13.02;;;1.55;;
20669;SDS011;10494;50.868;4.180;2024-03-23T14:40:04;5.80;;;1.17;;
20669;SDS011;10494;50.868;4.180;2024-03-23T14:42:31;6.60;;;1.42;;
20669;SDS011;10494;50.868;4.180;2024-03-23T14:44:57;6.30;;;1.45;;
20669;SDS011;10494;50.868;4.180;2024-03-23T14:47:23;7.90;;;1.30;;
20669;SDS011;10494;50.868;4.180;2024-03-23T14:49:49;6.72;;;1.20;;
20669;SDS011;10494;50.868;4.180;2024-03-23T14:52:19;8.45;;;1.40;;
20669;SDS011;10494;50.868;4.180;2024-03-23T14:54:45;8.20;;;1.38;;
20669;SDS011;10494;50.868;4.180;2024-03-23T14:57:11;5.07;;;1.25;;
20669;SDS011;10494;50.868;4.180;2024-03-23T14:59:37;2.85;;;1.00;;
20669;SDS011;10494;50.868;4.180;2024-03-23T15:02:03;172.23;;;25.15;;
20669;SDS011;10494;50.868;4.180;2024-03-23T15:04:29;8.48;;;1.30;;
20669;SDS011;10494;50.868;4.180;2024-03-23T15:06:55;3.75;;;1.33;;
20669;SDS011;10494;50.868;4.180;2024-03-23T15:09:21;5.68;;;1.85;;
20669;SDS011;10494;50.868;4.180;2024-03-23T15:11:46;6.97;;;2.67;;
20669;SDS011;10494;50.868;4.180;2024-03-23T15:14:12;5.63;;;2.22;;
20669;SDS011;10494;50.868;4.180;2024-03-23T15:16:37;5.07;;;2.22;;
20669;SDS011;10494;50.868;4.180;2024-03-23T15:19:03;6.47;;;1.83;;
20669;SDS011;10494;50.868;4.180;2024-03-23T15:21:31;8.45;;;2.42;;
20669;SDS011;10494;50.868;4.180;2024-03-23T15:23:57;4.55;;;1.80;;
20669;SDS011;10494;50.868;4.180;2024-03-23T15:26:22;7.30;;;2.28;;
20669;SDS011;10494;50.868;4.180;2024-03-23T15:28:48;10.38;;;3.65;;
20669;SDS011;10494;50.868;4.180;2024-03-23T15:31:23;9.00;;;2.80;;
20669;SDS011;10494;50.868;4.180;2024-03-23T15:33:49;9.18;;;3.67;;
20669;SDS011;10494;50.868;4.180;2024-03-23T15:36:14;8.60;;;2.05;;
20669;SDS011;10494;50.868;4.180;2024-03-23T15:38:40;4.82;;;1.33;;
20669;SDS011;10494;50.868;4.180;2024-03-23T15:41:06;3.65;;;1.30;;
20669;SDS011;10494;50.868;4.180;2024-03-23T15:43:32;8.00;;;1.95;;
20669;SDS011;10494;50.868;4.180;2024-03-23T15:45:59;4.82;;;1.38;;
20669;SDS011;10494;50.868;4.180;2024-03-23T15:48:26;4.22;;;1.45;;
20669;SDS011;10494;50.868;4.180;2024-03-23T15:51:02;6.47;;;1.40;;